Kalamazoo, MI (49004)

1:22 PM EDT on July 06, 2015 (GMT -0400)
Parchment | | Change Station
CLOSE
Current Station
Personal Weather Station
Location: Kalamazoo, MI
Elevation: 856 ft
Nearby Weather Stations

Elev 856 ft 42.33 °N, 85.55 °W | Updated 2 minutes ago

Partly Cloudy
Partly Cloudy
81.9 °F
Feels Like 85 °F
N
3.0
Wind Variable Wind from West
Gusts 3.0 mph

Today
High -- | Low -- °F
--% Chance of Precip.
Yesterday
High -- | Low -- °F
Precip. -- in
6:12 AM 9:21 PM
Waning Gibbous, 74% visible
Pressure 30.02 in
Visibility 8.0 miles
Clouds Scattered Clouds 2900 ft
Heat Index 85 °F
Dew Point 68 °F
Humidity 64%
Rainfall 0.00 in
Snow Depth Not available.
UV 9 out of 12
Pollen 5.00 out of 12
Air Quality Not available.
Flu Activity Not available.
METAR KAZO 061653Z 20012KT 8SM SCT029 28/19 A3003 RMK AO2 SLP165 T02780189

More Conditions Fewer Conditions

Pressure 30.02 in
Visibility 8.0 miles
Clouds Scattered Clouds 2900 ft
Heat Index 85 °F
Dew Point 68 °F
Humidity 64%
Rainfall 0.00 in
Snow Depth Not available.
UV 9 out of 12
Pollen 5.00 out of 12
Air Quality Not available.
Flu Activity Not available.
METAR KAZO 061653Z 20012KT 8SM SCT029 28/19 A3003 RMK AO2 SLP165 T02780189

More Conditions Fewer Conditions

10-Day Weather Forecast

×

Almanac

Astronomy

Jul. 06, 2015 Rise Set
Actual Time
Civil Twilight
Nautical Twilight
Astronomical Twilight
Moon
Length of Visible Light
Length of Day
Tomorrow will be .
, % of the Moon is Illuminated

Today's Extremes

State Highs State Lows

Community

WunderPhotos

Upload Photos

1,835,604 photos uploaded!

WunderBlogs® & News

Nearby

Air Quality

  Air Quality AQ Index Pollutant
Not available.

Snow Depth

Station Depth Elevation

Earthquake Activity

City Distance Mag. Time & Date
Minimum magnitude displayed is 2.5.

Coastal Water Temperatures

Place Temperature

Stations

Nearby Weather Stations

Station Location Temp. Windchill Dew Point Humidity Wind Precip. Elev Updated Type